Siddonsburg, Pennsylvania
Current Conditions -  °F | °C
As of 3:56 AM on Thursday 23 Oct 2014 (Local Time) from KCXY Reporting Station
Overcast Overcast  
Wind Chill: 54°   Ceiling: 2900
Heat Index: 54°   Visibility: 10mi
Dew Point: 43°   Wind: 15mph
Humidity: 66%   Direction: 340°NNW
Pressure: 29.88"   Gusts: NA
Location:  40.0904°N, 77.0293°W
Report Text: KCXY 230756Z AUTO 34013KT 10SM BKN029 OVC070 12/06 A2988 RMK AO2 SLP120 T01220061
Loading
Personal Weather Stations






























Interactive Weather Map
Tropical Storm Tracking
New forecast layout! Learn more

10-Day Weather Forecast

Advertisements
Track Severe Weather on mobile